Oromocto, Canada
Current Conditions -  °F | °C
As of 10:00 PM on Friday 21 Nov 2014 (Local Time) from CYCX Reporting Station
Few Clouds Few Clouds  
Wind Chill:   Ceiling: Unl
Heat Index: 21°   Visibility: 15mi
Dew Point:   Wind: 12mph
Humidity: 58%   Direction: 270°W
Pressure: 30.1"   Gusts: 24mph
Location:  45.84°N, 66.48°W
Report Text: CYCX 220200Z 27010G21KT 15SM FEW040 M06/M13 A3010 RMK SC1DA-2604FT SLP196
Loading
Personal Weather Stations






























Interactive Weather Map New forecast layout! Learn more

10-Day Weather Forecast

Advertisements
Track Severe Weather on mobile